Wiseton, Canada
Current Conditions -  °F | °C
As of 1:46 PM on Tuesday 21 Oct 2014 (Local Time) from CYKY Reporting Station
Broken Clouds Broken Clouds  
Wind Chill: 64°   Ceiling: 4500
Heat Index: 64°   Visibility: 15mi
Dew Point: 37°   Wind: 10mph
Humidity: 37%   Direction: 290°WNW
Pressure: 29.56"   Gusts: NA
Location:  51.32°N, 107.65°W
Report Text: CYKY 211946Z 29009KT 280V350 15SM BKN045 BKN085 18/03 A2956 RMK SC6AC1 WSHFT 1938 SLP014 DENSITY ALT 3500FT
Loading
Personal Weather Stations






























Interactive Weather Map
Tropical Storm Tracking
New forecast layout! Learn more

10-Day Weather Forecast

Advertisements
Track Severe Weather on mobile